sensor_id;sensor_type;location;lat;lon;timestamp;P1;durP1;ratioP1;P2;durP2;ratioP2
53971;SDS011;40530;53.062;6.078;2023-05-08T00:01:46;12.32;;;9.93;;
53971;SDS011;40530;53.062;6.078;2023-05-08T00:04:12;10.73;;;9.63;;
53971;SDS011;40530;53.062;6.078;2023-05-08T00:06:38;10.55;;;9.45;;
53971;SDS011;40530;53.062;6.078;2023-05-08T00:09:04;11.40;;;8.98;;
53971;SDS011;40530;53.062;6.078;2023-05-08T00:11:30;11.63;;;10.43;;
53971;SDS011;40530;53.062;6.078;2023-05-08T00:13:56;19.02;;;10.63;;
53971;SDS011;40530;53.062;6.078;2023-05-08T00:16:22;14.40;;;9.52;;
53971;SDS011;40530;53.062;6.078;2023-05-08T00:18:48;10.18;;;9.20;;
53971;SDS011;40530;53.062;6.078;2023-05-08T00:21:14;10.25;;;9.13;;
53971;SDS011;40530;53.062;6.078;2023-05-08T00:23:40;10.85;;;9.73;;
53971;SDS011;40530;53.062;6.078;2023-05-08T00:26:06;12.70;;;10.18;;
53971;SDS011;40530;53.062;6.078;2023-05-08T00:28:32;11.07;;;9.48;;
53971;SDS011;40530;53.062;6.078;2023-05-08T00:30:59;11.35;;;10.13;;
53971;SDS011;40530;53.062;6.078;2023-05-08T00:33:28;10.65;;;9.55;;
53971;SDS011;40530;53.062;6.078;2023-05-08T00:35:57;12.13;;;10.07;;
53971;SDS011;40530;53.062;6.078;2023-05-08T00:38:24;12.02;;;9.80;;
53971;SDS011;40530;53.062;6.078;2023-05-08T00:40:50;12.13;;;10.27;;
53971;SDS011;40530;53.062;6.078;2023-05-08T00:43:16;13.85;;;10.15;;
53971;SDS011;40530;53.062;6.078;2023-05-08T00:45:43;12.43;;;10.63;;
53971;SDS011;40530;53.062;6.078;2023-05-08T00:48:10;12.25;;;10.23;;
53971;SDS011;40530;53.062;6.078;2023-05-08T00:50:36;15.38;;;11.25;;
53971;SDS011;40530;53.062;6.078;2023-05-08T00:53:02;14.65;;;10.52;;
53971;SDS011;40530;53.062;6.078;2023-05-08T00:55:29;14.60;;;11.07;;
53971;SDS011;40530;53.062;6.078;2023-05-08T00:57:57;14.95;;;11.52;;
53971;SDS011;40530;53.062;6.078;2023-05-08T01:00:23;13.85;;;11.43;;
53971;SDS011;40530;53.062;6.078;2023-05-08T01:02:49;14.63;;;10.93;;
53971;SDS011;40530;53.062;6.078;2023-05-08T01:05:15;17.17;;;11.95;;
53971;SDS011;40530;53.062;6.078;2023-05-08T01:07:41;14.32;;;10.95;;
53971;SDS011;40530;53.062;6.078;2023-05-08T01:10:07;13.10;;;11.23;;
53971;SDS011;40530;53.062;6.078;2023-05-08T01:20:19;13.00;;;11.68;;
53971;SDS011;40530;53.062;6.078;2023-05-08T01:34:14;14.50;;;12.52;;
53971;SDS011;40530;53.062;6.078;2023-05-08T01:41:35;14.57;;;12.50;;
53971;SDS011;40530;53.062;6.078;2023-05-08T01:44:05;14.68;;;12.60;;
53971;SDS011;40530;53.062;6.078;2023-05-08T01:46:34;13.30;;;11.63;;
53971;SDS011;40530;53.062;6.078;2023-05-08T01:49:02;15.48;;;12.55;;
53971;SDS011;40530;53.062;6.078;2023-05-08T01:51:32;15.82;;;13.07;;
53971;SDS011;40530;53.062;6.078;2023-05-08T01:54:02;15.88;;;13.45;;
53971;SDS011;40530;53.062;6.078;2023-05-08T01:56:29;15.32;;;13.00;;
53971;SDS011;40530;53.062;6.078;2023-05-08T01:58:56;13.98;;;12.48;;
53971;SDS011;40530;53.062;6.078;2023-05-08T02:01:23;14.02;;;12.52;;
53971;SDS011;40530;53.062;6.078;2023-05-08T02:03:51;15.05;;;13.45;;
53971;SDS011;40530;53.062;6.078;2023-05-08T02:06:18;16.90;;;11.82;;
53971;SDS011;40530;53.062;6.078;2023-05-08T02:08:45;15.23;;;11.95;;
53971;SDS011;40530;53.062;6.078;2023-05-08T02:11:12;16.10;;;12.38;;
53971;SDS011;40530;53.062;6.078;2023-05-08T02:13:39;15.45;;;12.77;;
53971;SDS011;40530;53.062;6.078;2023-05-08T02:16:07;15.25;;;13.30;;
53971;SDS011;40530;53.062;6.078;2023-05-08T02:18:33;15.43;;;13.70;;
53971;SDS011;40530;53.062;6.078;2023-05-08T02:21:01;15.45;;;13.38;;
53971;SDS011;40530;53.062;6.078;2023-05-08T02:23:28;15.80;;;13.07;;
53971;SDS011;40530;53.062;6.078;2023-05-08T02:25:55;14.43;;;12.68;;
53971;SDS011;40530;53.062;6.078;2023-05-08T02:28:22;15.15;;;13.48;;
53971;SDS011;40530;53.062;6.078;2023-05-08T02:30:49;16.25;;;13.32;;
53971;SDS011;40530;53.062;6.078;2023-05-08T02:33:15;14.95;;;13.38;;
53971;SDS011;40530;53.062;6.078;2023-05-08T02:35:43;15.90;;;12.32;;
53971;SDS011;40530;53.062;6.078;2023-05-08T02:38:09;15.52;;;13.48;;
53971;SDS011;40530;53.062;6.078;2023-05-08T02:40:37;16.05;;;12.85;;
53971;SDS011;40530;53.062;6.078;2023-05-08T02:43:04;16.48;;;12.88;;
53971;SDS011;40530;53.062;6.078;2023-05-08T02:45:42;14.07;;;12.23;;
53971;SDS011;40530;53.062;6.078;2023-05-08T02:48:11;20.17;;;13.30;;
53971;SDS011;40530;53.062;6.078;2023-05-08T02:53:25;15.77;;;13.55;;
53971;SDS011;40530;53.062;6.078;2023-05-08T02:55:55;17.35;;;14.90;;
53971;SDS011;40530;53.062;6.078;2023-05-08T02:58:28;15.23;;;13.63;;
53971;SDS011;40530;53.062;6.078;2023-05-08T03:01:43;14.98;;;13.27;;
53971;SDS011;40530;53.062;6.078;2023-05-08T03:03:44;14.77;;;12.35;;
53971;SDS011;40530;53.062;6.078;2023-05-08T03:06:12;16.98;;;13.43;;
53971;SDS011;40530;53.062;6.078;2023-05-08T03:08:38;14.55;;;13.00;;
53971;SDS011;40530;53.062;6.078;2023-05-08T03:11:09;15.77;;;14.05;;
53971;SDS011;40530;53.062;6.078;2023-05-08T03:13:37;17.05;;;13.00;;
53971;SDS011;40530;53.062;6.078;2023-05-08T03:16:04;15.57;;;13.55;;
53971;SDS011;40530;53.062;6.078;2023-05-08T03:18:32;14.57;;;13.07;;
53971;SDS011;40530;53.062;6.078;2023-05-08T03:21:00;14.70;;;13.15;;
53971;SDS011;40530;53.062;6.078;2023-05-08T03:23:29;15.00;;;13.40;;
53971;SDS011;40530;53.062;6.078;2023-05-08T03:25:58;16.50;;;13.93;;
53971;SDS011;40530;53.062;6.078;2023-05-08T03:28:25;15.35;;;13.50;;
53971;SDS011;40530;53.062;6.078;2023-05-08T03:30:52;15.32;;;13.25;;
53971;SDS011;40530;53.062;6.078;2023-05-08T03:33:19;14.73;;;12.85;;
53971;SDS011;40530;53.062;6.078;2023-05-08T03:35:46;13.90;;;12.50;;
53971;SDS011;40530;53.062;6.078;2023-05-08T03:38:12;15.73;;;12.70;;
53971;SDS011;40530;53.062;6.078;2023-05-08T03:40:39;16.27;;;14.05;;
53971;SDS011;40530;53.062;6.078;2023-05-08T03:43:08;38.42;;;26.38;;
53971;SDS011;40530;53.062;6.078;2023-05-08T03:45:35;23.45;;;18.75;;
53971;SDS011;40530;53.062;6.078;2023-05-08T03:48:02;18.83;;;14.82;;
53971;SDS011;40530;53.062;6.078;2023-05-08T03:50:29;15.65;;;13.38;;
53971;SDS011;40530;53.062;6.078;2023-05-08T03:52:57;19.00;;;13.77;;
53971;SDS011;40530;53.062;6.078;2023-05-08T03:55:23;15.07;;;13.20;;
53971;SDS011;40530;53.062;6.078;2023-05-08T03:57:51;16.08;;;14.38;;
53971;SDS011;40530;53.062;6.078;2023-05-08T04:00:25;16.42;;;13.68;;
53971;SDS011;40530;53.062;6.078;2023-05-08T04:02:59;16.33;;;13.55;;
53971;SDS011;40530;53.062;6.078;2023-05-08T04:05:37;16.15;;;14.15;;
53971;SDS011;40530;53.062;6.078;2023-05-08T04:08:08;15.38;;;13.52;;
53971;SDS011;40530;53.062;6.078;2023-05-08T04:10:45;16.42;;;14.48;;
53971;SDS011;40530;53.062;6.078;2023-05-08T04:13:15;14.90;;;13.27;;
53971;SDS011;40530;53.062;6.078;2023-05-08T04:15:47;17.58;;;13.68;;
53971;SDS011;40530;53.062;6.078;2023-05-08T04:18:16;16.02;;;13.85;;
53971;SDS011;40530;53.062;6.078;2023-05-08T04:20:45;15.68;;;12.70;;
53971;SDS011;40530;53.062;6.078;2023-05-08T04:23:12;18.10;;;14.75;;
53971;SDS011;40530;53.062;6.078;2023-05-08T04:25:39;15.40;;;13.90;;
53971;SDS011;40530;53.062;6.078;2023-05-08T04:28:05;15.38;;;13.60;;
53971;SDS011;40530;53.062;6.078;2023-05-08T04:30:32;14.95;;;13.00;;
53971;SDS011;40530;53.062;6.078;2023-05-08T04:32:58;14.60;;;13.10;;
53971;SDS011;40530;53.062;6.078;2023-05-08T04:35:24;15.35;;;13.27;;
53971;SDS011;40530;53.062;6.078;2023-05-08T04:37:50;15.68;;;12.80;;
53971;SDS011;40530;53.062;6.078;2023-05-08T04:40:17;55.17;;;37.63;;
53971;SDS011;40530;53.062;6.078;2023-05-08T04:42:43;18.52;;;15.52;;
53971;SDS011;40530;53.062;6.078;2023-05-08T04:45:11;16.67;;;13.77;;
53971;SDS011;40530;53.062;6.078;2023-05-08T04:47:37;16.25;;;13.63;;
53971;SDS011;40530;53.062;6.078;2023-05-08T04:50:03;16.92;;;13.27;;
53971;SDS011;40530;53.062;6.078;2023-05-08T04:52:29;16.83;;;12.93;;
53971;SDS011;40530;53.062;6.078;2023-05-08T04:54:55;14.57;;;12.82;;
53971;SDS011;40530;53.062;6.078;2023-05-08T04:57:21;15.15;;;13.27;;
53971;SDS011;40530;53.062;6.078;2023-05-08T04:59:47;13.07;;;11.52;;
53971;SDS011;40530;53.062;6.078;2023-05-08T05:02:13;18.08;;;13.15;;
53971;SDS011;40530;53.062;6.078;2023-05-08T05:04:39;14.40;;;12.80;;
53971;SDS011;40530;53.062;6.078;2023-05-08T05:07:05;14.75;;;12.38;;
53971;SDS011;40530;53.062;6.078;2023-05-08T05:09:31;15.15;;;12.45;;
53971;SDS011;40530;53.062;6.078;2023-05-08T05:12:04;28.85;;;19.83;;
53971;SDS011;40530;53.062;6.078;2023-05-08T05:14:31;19.35;;;15.05;;
53971;SDS011;40530;53.062;6.078;2023-05-08T05:16:57;16.58;;;13.73;;
53971;SDS011;40530;53.062;6.078;2023-05-08T05:19:23;14.07;;;12.63;;
53971;SDS011;40530;53.062;6.078;2023-05-08T05:21:49;14.25;;;12.40;;
53971;SDS011;40530;53.062;6.078;2023-05-08T05:24:15;14.20;;;12.70;;
53971;SDS011;40530;53.062;6.078;2023-05-08T05:26:41;15.43;;;12.50;;
53971;SDS011;40530;53.062;6.078;2023-05-08T05:29:07;13.57;;;12.18;;
53971;SDS011;40530;53.062;6.078;2023-05-08T05:31:33;13.48;;;11.32;;
53971;SDS011;40530;53.062;6.078;2023-05-08T05:33:59;12.68;;;11.35;;
53971;SDS011;40530;53.062;6.078;2023-05-08T05:36:25;13.13;;;11.60;;
53971;SDS011;40530;53.062;6.078;2023-05-08T05:38:51;14.13;;;11.95;;
53971;SDS011;40530;53.062;6.078;2023-05-08T05:41:17;15.05;;;11.65;;
53971;SDS011;40530;53.062;6.078;2023-05-08T05:43:43;13.48;;;12.05;;
53971;SDS011;40530;53.062;6.078;2023-05-08T05:46:09;12.85;;;11.48;;
53971;SDS011;40530;53.062;6.078;2023-05-08T05:48:35;14.23;;;12.15;;
53971;SDS011;40530;53.062;6.078;2023-05-08T05:51:01;14.38;;;12.07;;
53971;SDS011;40530;53.062;6.078;2023-05-08T05:53:27;14.80;;;11.75;;
53971;SDS011;40530;53.062;6.078;2023-05-08T05:55:54;12.80;;;11.43;;
53971;SDS011;40530;53.062;6.078;2023-05-08T05:58:20;13.00;;;11.25;;
53971;SDS011;40530;53.062;6.078;2023-05-08T06:00:46;14.57;;;11.43;;
53971;SDS011;40530;53.062;6.078;2023-05-08T06:03:12;13.90;;;11.25;;
53971;SDS011;40530;53.062;6.078;2023-05-08T06:05:38;11.77;;;10.60;;
53971;SDS011;40530;53.062;6.078;2023-05-08T06:08:05;12.10;;;10.90;;
53971;SDS011;40530;53.062;6.078;2023-05-08T06:10:32;12.02;;;10.73;;
53971;SDS011;40530;53.062;6.078;2023-05-08T06:12:58;15.00;;;11.30;;
53971;SDS011;40530;53.062;6.078;2023-05-08T06:15:24;14.55;;;10.63;;
53971;SDS011;40530;53.062;6.078;2023-05-08T06:17:50;13.25;;;11.27;;
53971;SDS011;40530;53.062;6.078;2023-05-08T06:20:16;11.93;;;10.68;;
53971;SDS011;40530;53.062;6.078;2023-05-08T06:22:42;11.35;;;10.15;;
53971;SDS011;40530;53.062;6.078;2023-05-08T06:25:09;10.50;;;9.43;;
53971;SDS011;40530;53.062;6.078;2023-05-08T06:27:35;14.85;;;11.35;;
53971;SDS011;40530;53.062;6.078;2023-05-08T06:30:01;12.18;;;9.65;;
53971;SDS011;40530;53.062;6.078;2023-05-08T06:32:28;10.95;;;9.85;;
53971;SDS011;40530;53.062;6.078;2023-05-08T06:34:54;10.90;;;9.65;;
53971;SDS011;40530;53.062;6.078;2023-05-08T06:37:20;10.18;;;9.18;;
53971;SDS011;40530;53.062;6.078;2023-05-08T06:39:46;11.40;;;9.57;;
53971;SDS011;40530;53.062;6.078;2023-05-08T06:42:12;11.32;;;10.23;;
53971;SDS011;40530;53.062;6.078;2023-05-08T06:44:38;10.85;;;9.70;;
53971;SDS011;40530;53.062;6.078;2023-05-08T06:47:05;11.52;;;9.63;;
53971;SDS011;40530;53.062;6.078;2023-05-08T06:49:32;12.02;;;10.05;;
53971;SDS011;40530;53.062;6.078;2023-05-08T06:51:58;11.00;;;9.95;;
53971;SDS011;40530;53.062;6.078;2023-05-08T06:54:24;12.90;;;9.75;;
53971;SDS011;40530;53.062;6.078;2023-05-08T06:56:51;11.73;;;9.85;;
53971;SDS011;40530;53.062;6.078;2023-05-08T06:59:18;13.27;;;9.20;;
53971;SDS011;40530;53.062;6.078;2023-05-08T07:01:44;10.20;;;9.15;;
53971;SDS011;40530;53.062;6.078;2023-05-08T07:04:10;11.25;;;10.15;;
53971;SDS011;40530;53.062;6.078;2023-05-08T07:06:36;11.07;;;10.00;;
53971;SDS011;40530;53.062;6.078;2023-05-08T07:09:02;13.77;;;10.15;;
53971;SDS011;40530;53.062;6.078;2023-05-08T07:11:28;12.35;;;9.45;;
53971;SDS011;40530;53.062;6.078;2023-05-08T07:13:54;14.82;;;11.18;;
53971;SDS011;40530;53.062;6.078;2023-05-08T07:16:20;15.45;;;12.48;;
53971;SDS011;40530;53.062;6.078;2023-05-08T07:18:46;11.77;;;10.07;;
53971;SDS011;40530;53.062;6.078;2023-05-08T07:21:12;9.80;;;8.80;;
53971;SDS011;40530;53.062;6.078;2023-05-08T07:23:39;10.65;;;9.63;;
53971;SDS011;40530;53.062;6.078;2023-05-08T07:26:06;12.30;;;8.93;;
53971;SDS011;40530;53.062;6.078;2023-05-08T07:28:32;10.73;;;9.73;;
53971;SDS011;40530;53.062;6.078;2023-05-08T07:30:58;10.35;;;9.05;;
53971;SDS011;40530;53.062;6.078;2023-05-08T07:33:24;11.77;;;8.80;;
53971;SDS011;40530;53.062;6.078;2023-05-08T07:35:50;10.25;;;9.25;;
53971;SDS011;40530;53.062;6.078;2023-05-08T07:38:16;61.42;;;39.97;;
53971;SDS011;40530;53.062;6.078;2023-05-08T07:40:42;50.15;;;36.35;;
53971;SDS011;40530;53.062;6.078;2023-05-08T07:43:08;17.30;;;14.70;;
53971;SDS011;40530;53.062;6.078;2023-05-08T07:45:34;9.98;;;8.98;;
53971;SDS011;40530;53.062;6.078;2023-05-08T07:48:00;9.93;;;8.95;;
53971;SDS011;40530;53.062;6.078;2023-05-08T07:50:26;11.40;;;9.35;;
53971;SDS011;40530;53.062;6.078;2023-05-08T07:52:52;10.32;;;9.05;;
53971;SDS011;40530;53.062;6.078;2023-05-08T07:55:19;11.52;;;9.02;;
53971;SDS011;40530;53.062;6.078;2023-05-08T07:57:45;10.40;;;9.35;;
53971;SDS011;40530;53.062;6.078;2023-05-08T08:00:12;9.65;;;8.65;;
53971;SDS011;40530;53.062;6.078;2023-05-08T08:02:38;10.68;;;9.68;;
53971;SDS011;40530;53.062;6.078;2023-05-08T08:05:05;9.82;;;8.77;;
53971;SDS011;40530;53.062;6.078;2023-05-08T08:07:31;10.10;;;9.18;;
53971;SDS011;40530;53.062;6.078;2023-05-08T08:10:00;12.27;;;9.45;;
53971;SDS011;40530;53.062;6.078;2023-05-08T08:12:27;10.15;;;9.15;;
53971;SDS011;40530;53.062;6.078;2023-05-08T08:14:53;10.20;;;9.13;;
53971;SDS011;40530;53.062;6.078;2023-05-08T08:17:20;37.97;;;29.80;;
53971;SDS011;40530;53.062;6.078;2023-05-08T08:19:46;65.45;;;44.60;;
53971;SDS011;40530;53.062;6.078;2023-05-08T08:22:12;12.50;;;10.73;;
53971;SDS011;40530;53.062;6.078;2023-05-08T08:24:38;11.93;;;8.60;;
53971;SDS011;40530;53.062;6.078;2023-05-08T08:27:04;10.13;;;9.13;;
53971;SDS011;40530;53.062;6.078;2023-05-08T08:29:30;10.88;;;9.15;;
53971;SDS011;40530;53.062;6.078;2023-05-08T08:31:56;12.30;;;8.18;;
53971;SDS011;40530;53.062;6.078;2023-05-08T08:34:22;10.27;;;9.27;;
53971;SDS011;40530;53.062;6.078;2023-05-08T08:36:48;11.60;;;9.48;;
53971;SDS011;40530;53.062;6.078;2023-05-08T08:39:15;10.95;;;8.88;;
53971;SDS011;40530;53.062;6.078;2023-05-08T08:41:41;10.68;;;9.27;;
53971;SDS011;40530;53.062;6.078;2023-05-08T08:44:07;10.50;;;9.25;;
53971;SDS011;40530;53.062;6.078;2023-05-08T08:46:33;9.38;;;8.45;;
53971;SDS011;40530;53.062;6.078;2023-05-08T08:49:02;10.32;;;9.05;;
53971;SDS011;40530;53.062;6.078;2023-05-08T08:54:15;11.52;;;8.88;;
53971;SDS011;40530;53.062;6.078;2023-05-08T08:56:43;9.23;;;8.38;;
53971;SDS011;40530;53.062;6.078;2023-05-08T08:59:10;10.02;;;9.05;;
53971;SDS011;40530;53.062;6.078;2023-05-08T09:01:38;10.18;;;8.65;;
53971;SDS011;40530;53.062;6.078;2023-05-08T09:04:04;9.80;;;8.77;;
53971;SDS011;40530;53.062;6.078;2023-05-08T09:06:33;10.85;;;9.77;;
53971;SDS011;40530;53.062;6.078;2023-05-08T09:09:00;9.60;;;8.57;;
53971;SDS011;40530;53.062;6.078;2023-05-08T09:11:26;11.55;;;9.02;;
53971;SDS011;40530;53.062;6.078;2023-05-08T09:13:55;10.50;;;9.07;;
53971;SDS011;40530;53.062;6.078;2023-05-08T09:16:22;9.27;;;8.45;;
53971;SDS011;40530;53.062;6.078;2023-05-08T09:18:48;8.73;;;7.82;;
53971;SDS011;40530;53.062;6.078;2023-05-08T09:21:14;9.70;;;8.80;;
53971;SDS011;40530;53.062;6.078;2023-05-08T09:24:13;10.25;;;8.48;;
53971;SDS011;40530;53.062;6.078;2023-05-08T09:26:36;10.65;;;9.50;;
53971;SDS011;40530;53.062;6.078;2023-05-08T09:29:09;10.50;;;9.15;;
53971;SDS011;40530;53.062;6.078;2023-05-08T09:31:36;11.73;;;10.52;;
53971;SDS011;40530;53.062;6.078;2023-05-08T09:34:08;10.70;;;9.02;;
53971;SDS011;40530;53.062;6.078;2023-05-08T09:36:35;10.70;;;9.45;;
53971;SDS011;40530;53.062;6.078;2023-05-08T09:39:01;8.95;;;8.05;;
53971;SDS011;40530;53.062;6.078;2023-05-08T09:41:28;10.63;;;9.52;;
53971;SDS011;40530;53.062;6.078;2023-05-08T09:44:01;10.90;;;9.85;;
53971;SDS011;40530;53.062;6.078;2023-05-08T09:46:27;12.65;;;10.07;;
53971;SDS011;40530;53.062;6.078;2023-05-08T09:48:54;10.63;;;9.55;;
53971;SDS011;40530;53.062;6.078;2023-05-08T09:51:21;10.90;;;9.82;;
53971;SDS011;40530;53.062;6.078;2023-05-08T09:53:54;11.52;;;10.43;;
53971;SDS011;40530;53.062;6.078;2023-05-08T09:56:34;11.75;;;10.55;;
53971;SDS011;40530;53.062;6.078;2023-05-08T09:59:01;13.63;;;11.63;;
53971;SDS011;40530;53.062;6.078;2023-05-08T10:01:32;10.63;;;9.52;;
53971;SDS011;40530;53.062;6.078;2023-05-08T10:03:58;18.95;;;16.67;;
53971;SDS011;40530;53.062;6.078;2023-05-08T10:06:24;15.20;;;12.18;;
53971;SDS011;40530;53.062;6.078;2023-05-08T10:09:11;12.15;;;10.95;;
53971;SDS011;40530;53.062;6.078;2023-05-08T10:11:41;10.75;;;9.65;;
53971;SDS011;40530;53.062;6.078;2023-05-08T10:14:17;10.65;;;9.07;;
53971;SDS011;40530;53.062;6.078;2023-05-08T10:16:43;10.93;;;9.77;;
53971;SDS011;40530;53.062;6.078;2023-05-08T10:19:16;11.32;;;9.43;;
53971;SDS011;40530;53.062;6.078;2023-05-08T10:21:46;10.20;;;9.30;;
53971;SDS011;40530;53.062;6.078;2023-05-08T10:24:17;10.77;;;9.77;;
53971;SDS011;40530;53.062;6.078;2023-05-08T10:26:47;10.27;;;9.38;;
53971;SDS011;40530;53.062;6.078;2023-05-08T10:29:19;12.32;;;9.55;;
53971;SDS011;40530;53.062;6.078;2023-05-08T10:31:46;11.98;;;9.73;;
53971;SDS011;40530;53.062;6.078;2023-05-08T10:34:17;12.25;;;10.18;;
53971;SDS011;40530;53.062;6.078;2023-05-08T10:36:45;10.63;;;9.45;;
53971;SDS011;40530;53.062;6.078;2023-05-08T10:39:12;11.25;;;9.55;;
53971;SDS011;40530;53.062;6.078;2023-05-08T10:41:40;11.13;;;10.07;;
53971;SDS011;40530;53.062;6.078;2023-05-08T10:44:07;9.90;;;9.00;;
53971;SDS011;40530;53.062;6.078;2023-05-08T10:46:45;11.43;;;10.25;;
53971;SDS011;40530;53.062;6.078;2023-05-08T10:51:54;10.38;;;9.38;;
53971;SDS011;40530;53.062;6.078;2023-05-08T10:54:34;10.48;;;9.43;;
53971;SDS011;40530;53.062;6.078;2023-05-08T10:57:08;9.60;;;8.73;;
53971;SDS011;40530;53.062;6.078;2023-05-08T10:59:34;10.48;;;9.48;;
53971;SDS011;40530;53.062;6.078;2023-05-08T11:02:04;10.25;;;8.80;;
53971;SDS011;40530;53.062;6.078;2023-05-08T11:04:31;10.23;;;8.90;;
53971;SDS011;40530;53.062;6.078;2023-05-08T11:06:57;10.02;;;8.77;;
53971;SDS011;40530;53.062;6.078;2023-05-08T11:09:27;11.38;;;10.18;;
53971;SDS011;40530;53.062;6.078;2023-05-08T11:12:04;11.35;;;10.25;;
53971;SDS011;40530;53.062;6.078;2023-05-08T11:14:31;40.90;;;28.33;;
53971;SDS011;40530;53.062;6.078;2023-05-08T11:19:24;11.10;;;10.00;;
53971;SDS011;40530;53.062;6.078;2023-05-08T11:24:35;14.55;;;11.60;;
53971;SDS011;40530;53.062;6.078;2023-05-08T11:27:02;12.40;;;10.13;;
53971;SDS011;40530;53.062;6.078;2023-05-08T11:29:28;12.77;;;11.50;;
53971;SDS011;40530;53.062;6.078;2023-05-08T11:31:54;13.20;;;11.80;;
53971;SDS011;40530;53.062;6.078;2023-05-08T11:37:08;12.05;;;10.85;;
53971;SDS011;40530;53.062;6.078;2023-05-08T11:39:34;11.73;;;10.63;;
53971;SDS011;40530;53.062;6.078;2023-05-08T11:47:36;12.57;;;11.32;;
53971;SDS011;40530;53.062;6.078;2023-05-08T11:50:02;12.23;;;10.57;;
53971;SDS011;40530;53.062;6.078;2023-05-08T11:52:35;11.98;;;10.88;;
53971;SDS011;40530;53.062;6.078;2023-05-08T11:55:02;12.75;;;11.55;;
53971;SDS011;40530;53.062;6.078;2023-05-08T11:57:29;13.32;;;11.93;;
53971;SDS011;40530;53.062;6.078;2023-05-08T11:59:56;12.15;;;10.95;;
53971;SDS011;40530;53.062;6.078;2023-05-08T12:02:38;13.43;;;12.13;;
53971;SDS011;40530;53.062;6.078;2023-05-08T12:05:05;13.07;;;10.70;;
53971;SDS011;40530;53.062;6.078;2023-05-08T12:07:31;15.48;;;12.05;;
53971;SDS011;40530;53.062;6.078;2023-05-08T12:09:59;13.88;;;12.48;;
53971;SDS011;40530;53.062;6.078;2023-05-08T12:12:38;12.23;;;11.07;;
53971;SDS011;40530;53.062;6.078;2023-05-08T12:15:05;14.95;;;11.68;;
53971;SDS011;40530;53.062;6.078;2023-05-08T12:17:31;12.00;;;10.88;;
53971;SDS011;40530;53.062;6.078;2023-05-08T12:20:07;14.68;;;10.45;;
53971;SDS011;40530;53.062;6.078;2023-05-08T12:22:37;14.25;;;11.98;;
53971;SDS011;40530;53.062;6.078;2023-05-08T12:25:05;12.82;;;11.50;;
53971;SDS011;40530;53.062;6.078;2023-05-08T12:27:31;14.43;;;12.13;;
53971;SDS011;40530;53.062;6.078;2023-05-08T12:29:57;13.27;;;11.95;;
53971;SDS011;40530;53.062;6.078;2023-05-08T12:32:23;14.63;;;12.73;;
53971;SDS011;40530;53.062;6.078;2023-05-08T12:34:49;14.23;;;12.93;;
53971;SDS011;40530;53.062;6.078;2023-05-08T12:37:26;15.00;;;12.80;;
53971;SDS011;40530;53.062;6.078;2023-05-08T12:39:52;15.90;;;13.63;;
53971;SDS011;40530;53.062;6.078;2023-05-08T12:42:18;14.68;;;12.30;;
53971;SDS011;40530;53.062;6.078;2023-05-08T12:44:51;13.02;;;11.73;;
53971;SDS011;40530;53.062;6.078;2023-05-08T12:47:17;17.00;;;13.75;;
53971;SDS011;40530;53.062;6.078;2023-05-08T12:49:44;17.95;;;15.73;;
53971;SDS011;40530;53.062;6.078;2023-05-08T12:52:13;15.80;;;14.15;;
53971;SDS011;40530;53.062;6.078;2023-05-08T12:54:40;17.77;;;15.77;;
53971;SDS011;40530;53.062;6.078;2023-05-08T12:57:11;16.55;;;14.88;;
53971;SDS011;40530;53.062;6.078;2023-05-08T12:59:39;17.15;;;15.18;;
53971;SDS011;40530;53.062;6.078;2023-05-08T13:02:18;18.38;;;16.45;;
53971;SDS011;40530;53.062;6.078;2023-05-08T13:04:46;17.83;;;16.02;;
53971;SDS011;40530;53.062;6.078;2023-05-08T13:07:12;17.67;;;16.08;;
53971;SDS011;40530;53.062;6.078;2023-05-08T13:09:38;16.85;;;15.13;;
53971;SDS011;40530;53.062;6.078;2023-05-08T13:12:04;18.20;;;16.33;;
53971;SDS011;40530;53.062;6.078;2023-05-08T13:14:30;19.58;;;17.67;;
53971;SDS011;40530;53.062;6.078;2023-05-08T13:16:56;22.85;;;16.23;;
53971;SDS011;40530;53.062;6.078;2023-05-08T13:19:23;17.98;;;15.45;;
53971;SDS011;40530;53.062;6.078;2023-05-08T13:21:51;18.42;;;15.73;;
53971;SDS011;40530;53.062;6.078;2023-05-08T13:24:17;19.38;;;16.67;;
53971;SDS011;40530;53.062;6.078;2023-05-08T13:26:43;18.40;;;16.67;;
53971;SDS011;40530;53.062;6.078;2023-05-08T13:29:10;19.05;;;17.05;;
53971;SDS011;40530;53.062;6.078;2023-05-08T13:31:36;20.65;;;17.40;;
53971;SDS011;40530;53.062;6.078;2023-05-08T13:34:02;19.88;;;16.52;;
53971;SDS011;40530;53.062;6.078;2023-05-08T13:36:28;16.83;;;15.02;;
53971;SDS011;40530;53.062;6.078;2023-05-08T13:38:54;17.52;;;15.75;;
53971;SDS011;40530;53.062;6.078;2023-05-08T13:41:21;17.58;;;15.77;;
53971;SDS011;40530;53.062;6.078;2023-05-08T13:43:47;18.15;;;16.35;;
53971;SDS011;40530;53.062;6.078;2023-05-08T13:46:13;19.42;;;17.52;;
53971;SDS011;40530;53.062;6.078;2023-05-08T13:48:39;17.13;;;15.43;;
53971;SDS011;40530;53.062;6.078;2023-05-08T13:51:05;18.42;;;16.63;;
53971;SDS011;40530;53.062;6.078;2023-05-08T13:53:31;20.13;;;16.52;;
53971;SDS011;40530;53.062;6.078;2023-05-08T13:55:57;17.67;;;15.77;;
53971;SDS011;40530;53.062;6.078;2023-05-08T13:58:23;19.65;;;17.65;;
53971;SDS011;40530;53.062;6.078;2023-05-08T14:00:49;18.75;;;16.92;;
53971;SDS011;40530;53.062;6.078;2023-05-08T14:03:15;46.15;;;40.25;;
53971;SDS011;40530;53.062;6.078;2023-05-08T14:05:41;23.35;;;20.83;;
53971;SDS011;40530;53.062;6.078;2023-05-08T14:08:07;21.80;;;18.30;;
53971;SDS011;40530;53.062;6.078;2023-05-08T14:10:35;19.52;;;17.52;;
53971;SDS011;40530;53.062;6.078;2023-05-08T14:13:01;20.05;;;17.30;;
53971;SDS011;40530;53.062;6.078;2023-05-08T14:15:27;20.70;;;18.60;;
53971;SDS011;40530;53.062;6.078;2023-05-08T14:17:53;20.85;;;18.85;;
53971;SDS011;40530;53.062;6.078;2023-05-08T14:20:19;22.00;;;19.63;;
53971;SDS011;40530;53.062;6.078;2023-05-08T14:22:45;22.90;;;18.98;;
53971;SDS011;40530;53.062;6.078;2023-05-08T14:25:11;21.27;;;19.02;;
53971;SDS011;40530;53.062;6.078;2023-05-08T14:27:37;23.83;;;21.50;;
53971;SDS011;40530;53.062;6.078;2023-05-08T14:30:03;25.95;;;22.95;;
53971;SDS011;40530;53.062;6.078;2023-05-08T14:32:29;30.33;;;27.23;;
53971;SDS011;40530;53.062;6.078;2023-05-08T14:34:55;32.60;;;29.27;;
53971;SDS011;40530;53.062;6.078;2023-05-08T14:37:21;33.60;;;30.30;;
53971;SDS011;40530;53.062;6.078;2023-05-08T14:39:47;37.30;;;30.63;;
53971;SDS011;40530;53.062;6.078;2023-05-08T14:42:16;34.35;;;30.90;;
53971;SDS011;40530;53.062;6.078;2023-05-08T14:44:42;32.22;;;28.98;;
53971;SDS011;40530;53.062;6.078;2023-05-08T14:47:08;34.25;;;30.65;;
53971;SDS011;40530;53.062;6.078;2023-05-08T14:49:34;31.52;;;28.33;;
53971;SDS011;40530;53.062;6.078;2023-05-08T14:52:00;26.75;;;24.02;;
53971;SDS011;40530;53.062;6.078;2023-05-08T14:54:26;27.30;;;24.50;;
53971;SDS011;40530;53.062;6.078;2023-05-08T14:56:52;27.98;;;24.83;;
53971;SDS011;40530;53.062;6.078;2023-05-08T14:59:18;28.92;;;26.15;;
53971;SDS011;40530;53.062;6.078;2023-05-08T15:01:44;28.50;;;25.13;;
53971;SDS011;40530;53.062;6.078;2023-05-08T15:04:11;27.90;;;25.13;;
53971;SDS011;40530;53.062;6.078;2023-05-08T15:06:37;30.08;;;26.85;;
53971;SDS011;40530;53.062;6.078;2023-05-08T15:09:04;30.65;;;25.40;;
53971;SDS011;40530;53.062;6.078;2023-05-08T15:11:31;29.33;;;26.45;;
53971;SDS011;40530;53.062;6.078;2023-05-08T15:13:57;25.58;;;22.88;;